Anzahl Datensätze: 143
min. Temperatur: 2.2 °C
max. Temperatur: 4.8 °C
max. Windgeschwindigkeit: 17.3 km/h
Niederschlagsumme: 3.1 mm
| Datum |
Zeit |
Temp °C |
Feuchte % |
Taupunkt °C |
Luftdruck hPa |
Wind km/h |
Windrichtung |
Strahlung w/m² |
Niederschlag mm |
|---|---|---|---|---|---|---|---|---|---|
| 03.12.2024 | 00:04 | 4.5 | 95 | 3.8 | 1019.3 | 0.4 | N | 0 | 0.1 |
| 03.12.2024 | 00:14 | 4.5 | 94 | 3.7 | 1019.1 | 2.2 | N | 0 | 0.4 |
| 03.12.2024 | 00:24 | 4.5 | 93 | 3.5 | 1019.1 | 1.4 | N | 0 | 0.8 |
| 03.12.2024 | 00:34 | 4.5 | 94 | 3.6 | 1019.1 | 2.9 | NO | 0 | 1.0 |
| 03.12.2024 | 00:44 | 4.6 | 94 | 3.7 | 1019.0 | 1.1 | N | 0 | 1.2 |
| 03.12.2024 | 00:54 | 4.7 | 93 | 3.6 | 1018.9 | 1.8 | NNW | 0 | 1.2 |
| 03.12.2024 | 01:04 | 4.6 | 93 | 3.6 | 1018.8 | 2.5 | NNO | 0 | 1.2 |
| 03.12.2024 | 01:14 | 4.6 | 91 | 3.3 | 1018.8 | 3.2 | NNO | 0 | 1.3 |
| 03.12.2024 | 01:24 | 4.5 | 91 | 3.2 | 1018.8 | 0.0 | N | 0 | 1.3 |
| 03.12.2024 | 01:34 | 4.5 | 91 | 3.2 | 1018.8 | 2.2 | SSO | 0 | 1.6 |
| 03.12.2024 | 01:44 | 4.2 | 92 | 3.1 | 1018.9 | 3.6 | N | 0 | 1.8 |
| 03.12.2024 | 01:54 | 4.0 | 93 | 3.0 | 1019.0 | 2.5 | NNO | 0 | 2.0 |
| 03.12.2024 | 02:04 | 4.2 | 93 | 3.2 | 1018.8 | 3.2 | S | 0 | 2.0 |
| 03.12.2024 | 02:14 | 4.3 | 93 | 3.2 | 1018.7 | 0.4 | N | 0 | 2.0 |
| 03.12.2024 | 02:24 | 4.1 | 93 | 3.0 | 1018.7 | 2.2 | N | 0 | 2.1 |
| 03.12.2024 | 02:34 | 4.0 | 93 | 2.9 | 1018.8 | 1.4 | N | 0 | 2.1 |
| 03.12.2024 | 02:44 | 4.2 | 93 | 3.1 | 1018.7 | 1.8 | S | 0 | 2.1 |
| 03.12.2024 | 02:54 | 4.4 | 93 | 3.3 | 1018.6 | 0.4 | N | 0 | 2.1 |
| 03.12.2024 | 03:04 | 4.1 | 93 | 3.1 | 1018.7 | 1.8 | N | 0 | 2.1 |
| 03.12.2024 | 03:14 | 4.1 | 93 | 3.1 | 1018.7 | 1.4 | N | 0 | 2.1 |
| 03.12.2024 | 03:24 | 4.0 | 94 | 3.1 | 1018.7 | 1.4 | ONO | 0 | 2.1 |
| 03.12.2024 | 03:34 | 4.2 | 95 | 3.4 | 1018.7 | 0.7 | N | 0 | 2.3 |
| 03.12.2024 | 03:45 | 4.0 | 95 | 3.2 | 1018.6 | 0.7 | N | 0 | 2.3 |
| 03.12.2024 | 03:55 | 4.2 | 94 | 3.4 | 1018.5 | 1.8 | S | 0 | 2.6 |
| 03.12.2024 | 04:05 | 4.2 | 94 | 3.3 | 1018.2 | 2.2 | N | 0 | 2.6 |
| 03.12.2024 | 04:15 | 4.0 | 94 | 3.1 | 1018.5 | 0.4 | N | 0 | 2.6 |
| 03.12.2024 | 04:25 | 4.1 | 93 | 3.1 | 1018.5 | 1.8 | NNO | 0 | 2.6 |
| 03.12.2024 | 04:35 | 4.1 | 93 | 3.1 | 1018.3 | 1.4 | ONO | 0 | 2.6 |
| 03.12.2024 | 04:45 | 4.3 | 93 | 3.3 | 1018.3 | 0.7 | N | 0 | 2.6 |
| 03.12.2024 | 04:55 | 4.0 | 93 | 3.1 | 1018.4 | 2.9 | SO | 0 | 2.6 |
| 03.12.2024 | 05:05 | 3.8 | 94 | 3.0 | 1018.4 | 2.2 | NNW | 0 | 2.6 |
| 03.12.2024 | 05:15 | 3.8 | 93 | 2.9 | 1018.4 | 2.2 | N | 0 | 2.6 |
| 03.12.2024 | 05:25 | 3.9 | 93 | 2.9 | 1018.5 | 3.2 | N | 0 | 2.6 |
| 03.12.2024 | 05:35 | 4.0 | 94 | 3.1 | 1018.4 | 1.4 | NNO | 0 | 2.6 |
| 03.12.2024 | 05:45 | 4.6 | 94 | 3.6 | 1018.2 | 0.7 | N | 0 | 2.6 |
| 03.12.2024 | 05:55 | 4.4 | 93 | 3.4 | 1018.2 | 2.9 | S | 0 | 2.7 |
| 03.12.2024 | 06:05 | 4.1 | 94 | 3.3 | 1018.2 | 2.5 | N | 0 | 2.8 |
| 03.12.2024 | 06:15 | 4.1 | 95 | 3.4 | 1018.5 | 0.0 | N | 0 | 2.8 |
| 03.12.2024 | 06:25 | 4.1 | 95 | 3.3 | 1018.5 | 2.5 | N | 0 | 2.8 |
| 03.12.2024 | 06:35 | 4.1 | 95 | 3.3 | 1018.7 | 0.7 | N | 0 | 2.8 |
| 03.12.2024 | 06:45 | 3.9 | 95 | 3.2 | 1018.8 | 4.3 | SSW | 0 | 2.9 |
| 03.12.2024 | 06:55 | 4.1 | 95 | 3.3 | 1018.8 | 0.7 | N | 0 | 3.0 |
| 03.12.2024 | 07:05 | 4.2 | 95 | 3.4 | 1018.8 | 2.2 | SSW | 0 | 3.0 |
| 03.12.2024 | 07:15 | 4.0 | 95 | 3.3 | 1018.8 | 2.2 | N | 0 | 3.0 |
| 03.12.2024 | 07:25 | 4.3 | 93 | 3.3 | 1018.8 | 3.2 | NNW | 0 | 3.0 |
| 03.12.2024 | 07:35 | 4.6 | 89 | 3.0 | 1018.8 | 1.1 | N | 0 | 3.0 |
| 03.12.2024 | 07:45 | 4.4 | 90 | 2.9 | 1018.8 | 3.2 | NNO | 0 | 3.0 |
| 03.12.2024 | 07:55 | 4.4 | 89 | 2.8 | 1019.0 | 4.3 | NW | 0 | 3.0 |
| 03.12.2024 | 08:05 | 4.6 | 86 | 2.4 | 1018.9 | 7.6 | NNO | 2 | 3.0 |
| 03.12.2024 | 08:15 | 4.5 | 86 | 2.4 | 1019.0 | 3.2 | NNW | 6 | 3.0 |
| 03.12.2024 | 08:25 | 4.6 | 86 | 2.4 | 1019.1 | 4.0 | N | 8 | 3.0 |
| 03.12.2024 | 08:35 | 4.4 | 86 | 2.3 | 1019.2 | 3.6 | NNO | 9 | 3.0 |
| 03.12.2024 | 08:45 | 4.6 | 86 | 2.5 | 1019.4 | 1.4 | N | 16 | 3.0 |
| 03.12.2024 | 08:55 | 4.3 | 86 | 2.1 | 1019.4 | 5.0 | NNO | 14 | 3.1 |
| 03.12.2024 | 09:06 | 4.2 | 87 | 2.2 | 1019.5 | 5.4 | NNW | 15 | 3.1 |
| 03.12.2024 | 09:16 | 4.3 | 86 | 2.2 | 1019.5 | 4.0 | N | 17 | 3.1 |
| 03.12.2024 | 09:26 | 4.2 | 86 | 2.0 | 1019.4 | 8.6 | NNO | 23 | 3.1 |
| 03.12.2024 | 09:36 | 4.2 | 86 | 2.0 | 1019.6 | 5.8 | NNW | 27 | 3.1 |
| 03.12.2024 | 09:46 | 4.2 | 86 | 2.0 | 1019.7 | 7.2 | NNW | 39 | 3.1 |
| 03.12.2024 | 09:56 | 4.3 | 86 | 2.2 | 1019.7 | 4.0 | NNW | 50 | 3.1 |
| 03.12.2024 | 10:06 | 4.4 | 85 | 2.1 | 1019.6 | 5.8 | N | 55 | 3.1 |
| 03.12.2024 | 10:16 | 4.5 | 85 | 2.1 | 1019.8 | 2.5 | WSW | 57 | 3.1 |
| 03.12.2024 | 10:26 | 4.4 | 83 | 1.8 | 1019.7 | 4.7 | N | 54 | 3.1 |
| 03.12.2024 | 10:36 | 4.4 | 83 | 1.8 | 1019.7 | 1.4 | NNW | 62 | 3.1 |
| 03.12.2024 | 10:46 | 4.4 | 82 | 1.6 | 1019.9 | 4.3 | N | 60 | 3.1 |
| 03.12.2024 | 11:02 | 4.4 | 82 | 1.5 | 1019.8 | 7.9 | NW | 63 | 3.1 |
| 03.12.2024 | 11:12 | 4.5 | 81 | 1.5 | 1019.7 | 7.6 | NW | 69 | 3.1 |
| 03.12.2024 | 11:22 | 4.6 | 81 | 1.6 | 1019.6 | 5.4 | NNW | 77 | 3.1 |
| 03.12.2024 | 11:32 | 4.5 | 81 | 1.5 | 1019.8 | 2.5 | NNW | 78 | 3.1 |
| 03.12.2024 | 11:42 | 4.7 | 83 | 2.1 | 1019.8 | 1.4 | SW | 62 | 3.1 |
| 03.12.2024 | 11:52 | 4.6 | 81 | 1.7 | 1019.8 | 1.8 | ONO | 56 | 3.1 |
| 03.12.2024 | 12:02 | 4.7 | 80 | 1.6 | 1019.6 | 2.5 | NNO | 61 | 3.1 |
| 03.12.2024 | 12:12 | 4.5 | 78 | 1.1 | 1019.6 | 9.0 | NNW | 57 | 3.1 |
| 03.12.2024 | 12:22 | 4.6 | 78 | 1.1 | 1019.5 | 4.0 | N | 53 | 3.1 |
| 03.12.2024 | 12:32 | 4.7 | 77 | 1.1 | 1019.5 | 1.1 | WSW | 48 | 3.1 |
| 03.12.2024 | 12:42 | 4.8 | 78 | 1.3 | 1019.4 | 1.4 | W | 45 | 3.1 |
| 03.12.2024 | 12:52 | 4.7 | 80 | 1.5 | 1019.6 | 6.8 | W | 48 | 3.1 |
| 03.12.2024 | 13:02 | 4.3 | 81 | 1.3 | 1019.8 | 4.0 | W | 76 | 3.1 |
| 03.12.2024 | 13:12 | 4.4 | 80 | 1.3 | 1019.7 | 2.5 | SW | 76 | 3.1 |
| 03.12.2024 | 13:22 | 4.4 | 79 | 1.0 | 1019.8 | 4.7 | NW | 63 | 3.1 |
| 03.12.2024 | 13:32 | 4.3 | 79 | 1.0 | 1019.9 | 5.0 | SSW | 55 | 3.1 |
| 03.12.2024 | 13:42 | 4.2 | 79 | 1.0 | 1019.9 | 5.0 | NO | 54 | 3.1 |
| 03.12.2024 | 13:52 | 4.2 | 78 | 0.8 | 1020.0 | 2.9 | SSW | 58 | 3.1 |
| 03.12.2024 | 14:02 | 4.2 | 77 | 0.6 | 1020.0 | 2.9 | SSW | 60 | 3.1 |
| 03.12.2024 | 14:13 | 4.4 | 77 | 0.7 | 1019.9 | 4.7 | NW | 57 | 3.1 |
| 03.12.2024 | 14:23 | 4.4 | 77 | 0.7 | 1019.9 | 12.6 | S | 39 | 3.1 |
| 03.12.2024 | 14:33 | 4.2 | 76 | 0.4 | 1019.9 | 2.2 | W | 32 | 3.1 |
| 03.12.2024 | 14:43 | 4.3 | 77 | 0.6 | 1019.9 | 4.0 | SSW | 29 | 3.1 |
| 03.12.2024 | 14:53 | 4.4 | 76 | 0.5 | 1020.0 | 0.7 | N | 21 | 3.1 |
| 03.12.2024 | 15:03 | 3.3 | 85 | 1.1 | 1020.3 | 1.4 | N | 18 | 3.1 |
| 03.12.2024 | 15:13 | 3.4 | 84 | 0.9 | 1020.2 | 4.3 | NW | 16 | 3.1 |
| 03.12.2024 | 15:23 | 3.4 | 86 | 1.2 | 1020.1 | 1.4 | N | 13 | 3.1 |
| 03.12.2024 | 15:33 | 3.0 | 87 | 1.0 | 1020.2 | 4.3 | NNO | 15 | 3.1 |
| 03.12.2024 | 15:43 | 2.8 | 88 | 1.0 | 1020.4 | 4.3 | S | 19 | 3.1 |
| 03.12.2024 | 15:53 | 2.7 | 89 | 1.0 | 1020.4 | 1.1 | NNW | 8 | 3.1 |
| 03.12.2024 | 16:03 | 2.7 | 89 | 1.1 | 1020.5 | 4.7 | N | 7 | 3.1 |
| 03.12.2024 | 16:13 | 2.6 | 88 | 0.9 | 1020.4 | 1.8 | N | 5 | 3.1 |
| 03.12.2024 | 16:23 | 2.8 | 87 | 0.8 | 1020.4 | 1.8 | NNO | 4 | 3.1 |
| 03.12.2024 | 16:33 | 2.9 | 86 | 0.8 | 1020.4 | 1.1 | N | 3 | 3.1 |
| 03.12.2024 | 16:43 | 2.9 | 86 | 0.8 | 1020.4 | 7.2 | NO | 2 | 3.1 |
| 03.12.2024 | 16:53 | 3.2 | 86 | 1.0 | 1020.4 | 1.4 | N | 0 | 3.1 |
| 03.12.2024 | 17:03 | 3.1 | 85 | 0.8 | 1020.6 | 1.4 | NNO | 0 | 3.1 |
| 03.12.2024 | 17:13 | 3.1 | 86 | 0.9 | 1020.5 | 1.8 | NNO | 0 | 3.1 |
| 03.12.2024 | 17:23 | 3.2 | 85 | 0.9 | 1020.6 | 1.4 | NNW | 0 | 3.1 |
| 03.12.2024 | 17:33 | 3.4 | 85 | 1.1 | 1020.6 | 1.1 | N | 0 | 3.1 |
| 03.12.2024 | 17:43 | 3.1 | 85 | 0.7 | 1020.8 | 2.2 | NNO | 0 | 3.1 |
| 03.12.2024 | 17:53 | 3.3 | 86 | 1.1 | 1020.7 | 1.8 | NNO | 0 | 3.1 |
| 03.12.2024 | 18:03 | 3.1 | 88 | 1.3 | 1020.7 | 0.7 | N | 0 | 3.1 |
| 03.12.2024 | 18:13 | 3.1 | 88 | 1.3 | 1020.8 | 0.7 | N | 0 | 3.1 |
| 03.12.2024 | 18:23 | 3.3 | 88 | 1.5 | 1020.8 | 0.4 | N | 0 | 3.1 |
| 03.12.2024 | 18:33 | 3.0 | 88 | 1.2 | 1020.8 | 0.4 | NO | 0 | 3.1 |
| 03.12.2024 | 18:43 | 2.9 | 89 | 1.2 | 1020.8 | 4.7 | SSO | 0 | 3.1 |
| 03.12.2024 | 18:53 | 2.6 | 90 | 1.1 | 1020.8 | 1.8 | NW | 0 | 3.1 |
| 03.12.2024 | 19:03 | 2.5 | 89 | 0.9 | 1021.0 | 2.5 | N | 0 | 3.1 |
| 03.12.2024 | 19:13 | 2.6 | 87 | 0.6 | 1021.0 | 2.5 | ONO | 0 | 3.1 |
| 03.12.2024 | 19:23 | 2.5 | 87 | 0.5 | 1021.0 | 2.2 | N | 0 | 3.1 |
| 03.12.2024 | 19:33 | 2.7 | 87 | 0.7 | 1020.9 | 2.5 | NO | 0 | 3.1 |
| 03.12.2024 | 19:44 | 3.3 | 86 | 1.1 | 1020.7 | 0.4 | N | 0 | 3.1 |
| 03.12.2024 | 19:54 | 3.0 | 87 | 1.1 | 1020.9 | 0.4 | O | 0 | 3.1 |
| 03.12.2024 | 20:04 | 2.6 | 88 | 0.8 | 1021.0 | 1.8 | NNO | 0 | 3.1 |
| 03.12.2024 | 20:14 | 2.5 | 88 | 0.7 | 1020.9 | 1.8 | NNO | 0 | 3.1 |
| 03.12.2024 | 20:24 | 2.6 | 88 | 0.8 | 1020.9 | 1.1 | NNO | 0 | 3.1 |
| 03.12.2024 | 20:34 | 2.6 | 85 | 0.4 | 1020.9 | 1.4 | NO | 0 | 3.1 |
| 03.12.2024 | 20:44 | 2.5 | 87 | 0.6 | 1021.0 | 0.7 | N | 0 | 3.1 |
| 03.12.2024 | 20:54 | 2.5 | 88 | 0.7 | 1021.0 | 1.4 | NO | 0 | 3.1 |
| 03.12.2024 | 21:04 | 2.5 | 88 | 0.8 | 1021.1 | 2.5 | N | 0 | 3.1 |
| 03.12.2024 | 21:14 | 2.4 | 88 | 0.7 | 1021.1 | 2.2 | NO | 0 | 3.1 |
| 03.12.2024 | 21:24 | 2.4 | 88 | 0.6 | 1021.1 | 1.8 | NO | 0 | 3.1 |
| 03.12.2024 | 21:34 | 2.5 | 87 | 0.5 | 1021.2 | 0.4 | N | 0 | 3.1 |
| 03.12.2024 | 21:44 | 2.5 | 86 | 0.4 | 1021.2 | 0.7 | N | 0 | 3.1 |
| 03.12.2024 | 21:54 | 2.8 | 84 | 0.5 | 1021.2 | 1.8 | S | 0 | 3.1 |
| 03.12.2024 | 22:04 | 2.6 | 87 | 0.6 | 1021.3 | 1.4 | N | 0 | 3.1 |
| 03.12.2024 | 22:14 | 2.4 | 88 | 0.6 | 1021.5 | 2.2 | NO | 0 | 3.1 |
| 03.12.2024 | 22:24 | 2.5 | 87 | 0.6 | 1021.4 | 1.1 | N | 0 | 3.1 |
| 03.12.2024 | 22:34 | 2.2 | 87 | 0.3 | 1021.3 | 2.5 | NO | 0 | 3.1 |
| 03.12.2024 | 22:44 | 2.3 | 86 | 0.2 | 1021.3 | 2.2 | NNO | 0 | 3.1 |
| 03.12.2024 | 22:54 | 2.4 | 85 | 0.2 | 1021.2 | 3.2 | NNO | 0 | 3.1 |
| 03.12.2024 | 23:04 | 2.5 | 85 | 0.2 | 1021.2 | 1.8 | NO | 0 | 3.1 |
| 03.12.2024 | 23:14 | 2.6 | 83 | -0.1 | 1021.1 | 2.2 | ONO | 0 | 3.1 |
| 03.12.2024 | 23:24 | 2.4 | 84 | 0.0 | 1021.0 | 1.8 | NNO | 0 | 3.1 |
| 03.12.2024 | 23:34 | 2.6 | 83 | 0.0 | 1020.8 | 2.5 | NNO | 0 | 3.1 |
| 03.12.2024 | 23:44 | 2.6 | 81 | -0.3 | 1020.7 | 1.4 | N | 0 | 3.1 |
| 03.12.2024 | 23:54 | 2.7 | 80 | -0.5 | 1020.8 | 5.0 | NO | 0 | 3.1 |